sensor_id;sensor_type;location;lat;lon;timestamp;temperature;humidity
11647;DHT22;5880;52.342;9.662;2023-07-20T00:01:43;20.50;52.70
11647;DHT22;5880;52.342;9.662;2023-07-20T00:04:10;20.50;52.80
11647;DHT22;5880;52.342;9.662;2023-07-20T00:06:36;20.40;52.70
11647;DHT22;5880;52.342;9.662;2023-07-20T00:09:06;20.40;52.80
11647;DHT22;5880;52.342;9.662;2023-07-20T00:11:36;20.40;53.00
11647;DHT22;5880;52.342;9.662;2023-07-20T00:14:06;20.40;53.50
11647;DHT22;5880;52.342;9.662;2023-07-20T00:16:32;20.40;53.30
11647;DHT22;5880;52.342;9.662;2023-07-20T00:18:58;20.30;53.00
11647;DHT22;5880;52.342;9.662;2023-07-20T00:21:25;20.30;53.00
11647;DHT22;5880;52.342;9.662;2023-07-20T00:23:50;20.20;53.00
11647;DHT22;5880;52.342;9.662;2023-07-20T00:26:16;20.20;53.00
11647;DHT22;5880;52.342;9.662;2023-07-20T00:28:43;20.20;52.90
11647;DHT22;5880;52.342;9.662;2023-07-20T00:31:08;20.10;53.30
11647;DHT22;5880;52.342;9.662;2023-07-20T00:33:34;20.10;53.40
11647;DHT22;5880;52.342;9.662;2023-07-20T00:36:00;20.00;53.40
11647;DHT22;5880;52.342;9.662;2023-07-20T00:38:25;20.00;53.60
11647;DHT22;5880;52.342;9.662;2023-07-20T00:40:51;20.00;53.60
11647;DHT22;5880;52.342;9.662;2023-07-20T00:43:17;19.90;53.70
11647;DHT22;5880;52.342;9.662;2023-07-20T00:45:43;19.90;53.90
11647;DHT22;5880;52.342;9.662;2023-07-20T00:48:10;19.80;54.20
11647;DHT22;5880;52.342;9.662;2023-07-20T00:50:36;19.80;54.20
11647;DHT22;5880;52.342;9.662;2023-07-20T00:53:04;19.80;54.20
11647;DHT22;5880;52.342;9.662;2023-07-20T00:55:33;19.70;54.70
11647;DHT22;5880;52.342;9.662;2023-07-20T00:57:59;19.70;54.40
11647;DHT22;5880;52.342;9.662;2023-07-20T01:00:25;19.80;54.60
11647;DHT22;5880;52.342;9.662;2023-07-20T01:02:51;19.70;54.90
11647;DHT22;5880;52.342;9.662;2023-07-20T01:05:18;19.70;54.80
11647;DHT22;5880;52.342;9.662;2023-07-20T01:08:24;19.60;54.90
11647;DHT22;5880;52.342;9.662;2023-07-20T01:11:01;19.60;56.50
11647;DHT22;5880;52.342;9.662;2023-07-20T01:13:36;19.60;55.30
11647;DHT22;5880;52.342;9.662;2023-07-20T01:16:03;19.60;55.30
11647;DHT22;5880;52.342;9.662;2023-07-20T01:18:29;19.60;55.20
11647;DHT22;5880;52.342;9.662;2023-07-20T01:21:09;19.50;55.30
11647;DHT22;5880;52.342;9.662;2023-07-20T01:32:44;19.50;56.60
11647;DHT22;5880;52.342;9.662;2023-07-20T01:35:13;19.50;55.70
11647;DHT22;5880;52.342;9.662;2023-07-20T01:37:43;19.50;55.80
11647;DHT22;5880;52.342;9.662;2023-07-20T01:40:13;19.50;56.20
11647;DHT22;5880;52.342;9.662;2023-07-20T01:42:44;19.50;56.30
11647;DHT22;5880;52.342;9.662;2023-07-20T01:45:13;19.50;56.50
11647;DHT22;5880;52.342;9.662;2023-07-20T01:47:39;19.50;56.20
11647;DHT22;5880;52.342;9.662;2023-07-20T01:50:06;19.50;56.10
11647;DHT22;5880;52.342;9.662;2023-07-20T01:52:32;19.50;56.50
11647;DHT22;5880;52.342;9.662;2023-07-20T01:54:58;19.50;56.30
11647;DHT22;5880;52.342;9.662;2023-07-20T01:57:23;19.50;56.30
11647;DHT22;5880;52.342;9.662;2023-07-20T01:59:49;19.60;56.10
11647;DHT22;5880;52.342;9.662;2023-07-20T02:02:15;19.60;56.00
11647;DHT22;5880;52.342;9.662;2023-07-20T02:04:40;19.60;56.00
11647;DHT22;5880;52.342;9.662;2023-07-20T02:07:06;19.60;55.90
11647;DHT22;5880;52.342;9.662;2023-07-20T02:09:32;19.70;55.90
11647;DHT22;5880;52.342;9.662;2023-07-20T02:11:57;19.70;56.00
11647;DHT22;5880;52.342;9.662;2023-07-20T02:14:23;19.70;56.10
11647;DHT22;5880;52.342;9.662;2023-07-20T02:16:49;19.70;56.20
11647;DHT22;5880;52.342;9.662;2023-07-20T02:19:18;19.70;55.90
11647;DHT22;5880;52.342;9.662;2023-07-20T02:21:44;19.60;56.60
11647;DHT22;5880;52.342;9.662;2023-07-20T02:24:11;19.60;55.80
11647;DHT22;5880;52.342;9.662;2023-07-20T02:26:38;19.60;55.90
11647;DHT22;5880;52.342;9.662;2023-07-20T02:29:03;19.60;55.90
11647;DHT22;5880;52.342;9.662;2023-07-20T02:31:30;19.50;55.70
11647;DHT22;5880;52.342;9.662;2023-07-20T02:33:56;19.50;55.50
11647;DHT22;5880;52.342;9.662;2023-07-20T02:36:22;19.50;55.80
11647;DHT22;5880;52.342;9.662;2023-07-20T02:38:47;19.50;55.60
11647;DHT22;5880;52.342;9.662;2023-07-20T02:41:13;19.40;55.60
11647;DHT22;5880;52.342;9.662;2023-07-20T02:43:39;19.40;55.80
11647;DHT22;5880;52.342;9.662;2023-07-20T02:46:05;19.40;56.00
11647;DHT22;5880;52.342;9.662;2023-07-20T02:48:30;19.30;56.30
11647;DHT22;5880;52.342;9.662;2023-07-20T02:50:56;19.30;56.10
11647;DHT22;5880;52.342;9.662;2023-07-20T02:53:22;19.30;56.10
11647;DHT22;5880;52.342;9.662;2023-07-20T02:55:47;19.40;56.20
11647;DHT22;5880;52.342;9.662;2023-07-20T02:58:13;19.30;56.30
11647;DHT22;5880;52.342;9.662;2023-07-20T03:00:39;19.30;56.40
11647;DHT22;5880;52.342;9.662;2023-07-20T03:03:04;19.30;57.10
11647;DHT22;5880;52.342;9.662;2023-07-20T03:05:34;19.30;56.50
11647;DHT22;5880;52.342;9.662;2023-07-20T03:08:03;19.30;56.60
11647;DHT22;5880;52.342;9.662;2023-07-20T03:10:31;19.30;56.60
11647;DHT22;5880;52.342;9.662;2023-07-20T03:12:58;19.30;56.70
11647;DHT22;5880;52.342;9.662;2023-07-20T03:15:24;19.30;56.90
11647;DHT22;5880;52.342;9.662;2023-07-20T03:17:50;19.30;56.80
11647;DHT22;5880;52.342;9.662;2023-07-20T03:20:17;19.40;56.90
11647;DHT22;5880;52.342;9.662;2023-07-20T03:22:42;19.30;57.10
11647;DHT22;5880;52.342;9.662;2023-07-20T03:25:08;19.30;57.10
11647;DHT22;5880;52.342;9.662;2023-07-20T03:27:34;19.30;57.00
11647;DHT22;5880;52.342;9.662;2023-07-20T03:29:59;19.30;57.10
11647;DHT22;5880;52.342;9.662;2023-07-20T03:32:25;19.30;57.00
11647;DHT22;5880;52.342;9.662;2023-07-20T03:34:51;19.30;56.90
11647;DHT22;5880;52.342;9.662;2023-07-20T03:37:16;19.30;56.80
11647;DHT22;5880;52.342;9.662;2023-07-20T03:39:42;19.30;56.70
11647;DHT22;5880;52.342;9.662;2023-07-20T03:42:08;19.70;56.90
11647;DHT22;5880;52.342;9.662;2023-07-20T03:44:33;19.30;56.70
11647;DHT22;5880;52.342;9.662;2023-07-20T03:46:59;19.30;57.00
11647;DHT22;5880;52.342;9.662;2023-07-20T03:49:25;19.30;57.20
11647;DHT22;5880;52.342;9.662;2023-07-20T03:51:50;19.30;57.40
11647;DHT22;5880;52.342;9.662;2023-07-20T03:54:16;19.40;57.80
11647;DHT22;5880;52.342;9.662;2023-07-20T03:56:41;19.30;58.00
11647;DHT22;5880;52.342;9.662;2023-07-20T03:59:07;19.40;57.90
11647;DHT22;5880;52.342;9.662;2023-07-20T04:01:33;19.30;58.10
11647;DHT22;5880;52.342;9.662;2023-07-20T04:04:04;19.30;58.20
11647;DHT22;5880;52.342;9.662;2023-07-20T04:06:31;19.30;58.10
11647;DHT22;5880;52.342;9.662;2023-07-20T04:08:56;19.30;57.80
11647;DHT22;5880;52.342;9.662;2023-07-20T04:11:22;19.30;57.90
11647;DHT22;5880;52.342;9.662;2023-07-20T04:13:48;19.40;58.10
11647;DHT22;5880;52.342;9.662;2023-07-20T04:16:13;19.40;58.10
11647;DHT22;5880;52.342;9.662;2023-07-20T04:18:39;19.40;58.10
11647;DHT22;5880;52.342;9.662;2023-07-20T04:21:05;19.40;58.10
11647;DHT22;5880;52.342;9.662;2023-07-20T04:23:33;19.40;58.20
11647;DHT22;5880;52.342;9.662;2023-07-20T04:25:58;19.40;58.60
11647;DHT22;5880;52.342;9.662;2023-07-20T04:28:24;19.30;58.70
11647;DHT22;5880;52.342;9.662;2023-07-20T04:30:50;19.20;58.80
11647;DHT22;5880;52.342;9.662;2023-07-20T04:33:16;19.30;59.00
11647;DHT22;5880;52.342;9.662;2023-07-20T04:35:51;19.20;59.20
11647;DHT22;5880;52.342;9.662;2023-07-20T04:38:19;19.20;60.40
11647;DHT22;5880;52.342;9.662;2023-07-20T04:40:49;19.10;59.60
11647;DHT22;5880;52.342;9.662;2023-07-20T04:43:16;19.10;60.10
11647;DHT22;5880;52.342;9.662;2023-07-20T04:45:42;19.10;60.30
11647;DHT22;5880;52.342;9.662;2023-07-20T04:48:14;19.00;60.40
11647;DHT22;5880;52.342;9.662;2023-07-20T04:50:42;19.10;61.70
11647;DHT22;5880;52.342;9.662;2023-07-20T04:53:10;19.00;60.80
11647;DHT22;5880;52.342;9.662;2023-07-20T04:55:37;19.00;60.70
11647;DHT22;5880;52.342;9.662;2023-07-20T04:58:05;19.00;61.00
11647;DHT22;5880;52.342;9.662;2023-07-20T05:00:32;19.00;61.00
11647;DHT22;5880;52.342;9.662;2023-07-20T05:02:59;19.00;61.30
11647;DHT22;5880;52.342;9.662;2023-07-20T05:05:24;19.00;61.30
11647;DHT22;5880;52.342;9.662;2023-07-20T05:07:50;19.00;61.60
11647;DHT22;5880;52.342;9.662;2023-07-20T05:10:16;19.20;61.60
11647;DHT22;5880;52.342;9.662;2023-07-20T05:12:42;19.00;61.70
11647;DHT22;5880;52.342;9.662;2023-07-20T05:15:08;19.00;61.90
11647;DHT22;5880;52.342;9.662;2023-07-20T05:17:34;19.00;62.00
11647;DHT22;5880;52.342;9.662;2023-07-20T05:19:59;19.10;62.10
11647;DHT22;5880;52.342;9.662;2023-07-20T05:22:25;19.00;62.00
11647;DHT22;5880;52.342;9.662;2023-07-20T05:24:51;19.00;62.10
11647;DHT22;5880;52.342;9.662;2023-07-20T05:27:16;19.00;62.20
11647;DHT22;5880;52.342;9.662;2023-07-20T05:29:45;19.20;62.40
11647;DHT22;5880;52.342;9.662;2023-07-20T05:32:12;19.00;63.00
11647;DHT22;5880;52.342;9.662;2023-07-20T05:34:38;19.00;62.50
11647;DHT22;5880;52.342;9.662;2023-07-20T05:37:05;19.00;62.50
11647;DHT22;5880;52.342;9.662;2023-07-20T05:39:32;19.00;62.60
11647;DHT22;5880;52.342;9.662;2023-07-20T05:41:58;19.00;62.90
11647;DHT22;5880;52.342;9.662;2023-07-20T05:44:24;19.00;62.80
11647;DHT22;5880;52.342;9.662;2023-07-20T05:46:49;19.00;62.80
11647;DHT22;5880;52.342;9.662;2023-07-20T05:49:15;19.00;62.80
11647;DHT22;5880;52.342;9.662;2023-07-20T05:51:41;19.00;62.80
11647;DHT22;5880;52.342;9.662;2023-07-20T05:54:06;19.00;62.70
11647;DHT22;5880;52.342;9.662;2023-07-20T05:56:32;19.00;62.90
11647;DHT22;5880;52.342;9.662;2023-07-20T05:58:58;19.00;63.00
11647;DHT22;5880;52.342;9.662;2023-07-20T06:01:24;19.00;63.30
11647;DHT22;5880;52.342;9.662;2023-07-20T06:03:52;19.30;63.60
11647;DHT22;5880;52.342;9.662;2023-07-20T06:06:18;19.10;63.60
11647;DHT22;5880;52.342;9.662;2023-07-20T06:08:44;19.10;63.80
11647;DHT22;5880;52.342;9.662;2023-07-20T06:11:10;19.10;63.80
11647;DHT22;5880;52.342;9.662;2023-07-20T06:13:36;19.20;63.90
11647;DHT22;5880;52.342;9.662;2023-07-20T06:16:03;19.20;64.00
11647;DHT22;5880;52.342;9.662;2023-07-20T06:18:29;19.30;64.20
11647;DHT22;5880;52.342;9.662;2023-07-20T06:20:56;19.30;64.30
11647;DHT22;5880;52.342;9.662;2023-07-20T06:23:21;19.30;64.20
11647;DHT22;5880;52.342;9.662;2023-07-20T06:25:47;19.40;64.10
11647;DHT22;5880;52.342;9.662;2023-07-20T06:28:13;19.40;64.10
11647;DHT22;5880;52.342;9.662;2023-07-20T06:30:39;19.50;64.20
11647;DHT22;5880;52.342;9.662;2023-07-20T06:33:05;19.50;64.10
11647;DHT22;5880;52.342;9.662;2023-07-20T06:35:31;19.50;64.10
11647;DHT22;5880;52.342;9.662;2023-07-20T06:37:57;19.50;63.90
11647;DHT22;5880;52.342;9.662;2023-07-20T06:40:26;19.50;63.90
11647;DHT22;5880;52.342;9.662;2023-07-20T06:42:52;19.50;63.90
11647;DHT22;5880;52.342;9.662;2023-07-20T06:45:17;19.60;63.90
11647;DHT22;5880;52.342;9.662;2023-07-20T06:47:43;19.50;64.00
11647;DHT22;5880;52.342;9.662;2023-07-20T06:50:10;19.60;64.20
11647;DHT22;5880;52.342;9.662;2023-07-20T06:52:36;19.60;64.80
11647;DHT22;5880;52.342;9.662;2023-07-20T06:55:02;19.70;65.90
11647;DHT22;5880;52.342;9.662;2023-07-20T06:57:28;19.90;68.00
11647;DHT22;5880;52.342;9.662;2023-07-20T06:59:54;20.10;68.10
11647;DHT22;5880;52.342;9.662;2023-07-20T07:02:20;20.40;68.00
11647;DHT22;5880;52.342;9.662;2023-07-20T07:04:45;20.70;67.10
11647;DHT22;5880;52.342;9.662;2023-07-20T07:07:14;21.00;66.20
11647;DHT22;5880;52.342;9.662;2023-07-20T07:09:40;21.10;66.20
11647;DHT22;5880;52.342;9.662;2023-07-20T07:12:07;21.30;67.00
11647;DHT22;5880;52.342;9.662;2023-07-20T07:14:33;21.50;66.80
11647;DHT22;5880;52.342;9.662;2023-07-20T07:16:59;21.70;65.80
11647;DHT22;5880;52.342;9.662;2023-07-20T07:19:25;21.90;65.50
11647;DHT22;5880;52.342;9.662;2023-07-20T07:21:51;22.10;64.70
11647;DHT22;5880;52.342;9.662;2023-07-20T07:24:17;22.20;63.60
11647;DHT22;5880;52.342;9.662;2023-07-20T07:26:42;22.30;62.90
11647;DHT22;5880;52.342;9.662;2023-07-20T07:29:08;22.30;62.80
11647;DHT22;5880;52.342;9.662;2023-07-20T07:31:35;22.50;62.90
11647;DHT22;5880;52.342;9.662;2023-07-20T07:34:04;22.50;63.20
11647;DHT22;5880;52.342;9.662;2023-07-20T07:36:31;22.50;63.10
11647;DHT22;5880;52.342;9.662;2023-07-20T07:38:57;22.70;62.50
11647;DHT22;5880;52.342;9.662;2023-07-20T07:41:23;22.90;62.00
11647;DHT22;5880;52.342;9.662;2023-07-20T07:43:49;22.90;61.60
11647;DHT22;5880;52.342;9.662;2023-07-20T07:46:14;23.00;61.60
11647;DHT22;5880;52.342;9.662;2023-07-20T07:48:41;23.00;61.60
11647;DHT22;5880;52.342;9.662;2023-07-20T07:51:07;23.10;61.70
11647;DHT22;5880;52.342;9.662;2023-07-20T07:53:33;23.20;60.90
11647;DHT22;5880;52.342;9.662;2023-07-20T07:56:00;23.10;60.30
11647;DHT22;5880;52.342;9.662;2023-07-20T07:58:26;23.10;59.60
11647;DHT22;5880;52.342;9.662;2023-07-20T08:00:52;23.00;59.00
11647;DHT22;5880;52.342;9.662;2023-07-20T08:03:17;22.80;59.00
11647;DHT22;5880;52.342;9.662;2023-07-20T08:05:44;22.70;59.30
11647;DHT22;5880;52.342;9.662;2023-07-20T08:08:09;22.60;59.20
11647;DHT22;5880;52.342;9.662;2023-07-20T08:10:35;22.60;59.20
11647;DHT22;5880;52.342;9.662;2023-07-20T08:13:01;22.50;59.10
11647;DHT22;5880;52.342;9.662;2023-07-20T08:15:26;22.50;59.20
11647;DHT22;5880;52.342;9.662;2023-07-20T08:17:52;22.40;59.00
11647;DHT22;5880;52.342;9.662;2023-07-20T08:20:18;22.40;59.10
11647;DHT22;5880;52.342;9.662;2023-07-20T08:22:44;22.50;60.30
11647;DHT22;5880;52.342;9.662;2023-07-20T08:25:09;22.40;60.60
11647;DHT22;5880;52.342;9.662;2023-07-20T08:27:36;22.40;60.20
11647;DHT22;5880;52.342;9.662;2023-07-20T08:30:02;22.50;59.90
11647;DHT22;5880;52.342;9.662;2023-07-20T08:32:29;22.50;59.10
11647;DHT22;5880;52.342;9.662;2023-07-20T08:34:55;22.50;58.70
11647;DHT22;5880;52.342;9.662;2023-07-20T08:37:21;22.50;58.30
11647;DHT22;5880;52.342;9.662;2023-07-20T08:39:47;22.50;58.30
11647;DHT22;5880;52.342;9.662;2023-07-20T08:42:14;22.60;58.80
11647;DHT22;5880;52.342;9.662;2023-07-20T08:44:42;22.60;58.20
11647;DHT22;5880;52.342;9.662;2023-07-20T08:47:10;22.60;59.20
11647;DHT22;5880;52.342;9.662;2023-07-20T08:49:39;22.80;58.50
11647;DHT22;5880;52.342;9.662;2023-07-20T08:52:06;22.60;58.60
11647;DHT22;5880;52.342;9.662;2023-07-20T08:54:33;22.60;57.60
11647;DHT22;5880;52.342;9.662;2023-07-20T08:57:03;22.70;57.60
11647;DHT22;5880;52.342;9.662;2023-07-20T08:59:30;22.70;57.30
11647;DHT22;5880;52.342;9.662;2023-07-20T09:02:00;22.70;57.90
11647;DHT22;5880;52.342;9.662;2023-07-20T09:04:26;22.80;57.10
11647;DHT22;5880;52.342;9.662;2023-07-20T09:06:52;22.70;56.80
11647;DHT22;5880;52.342;9.662;2023-07-20T09:09:17;22.70;57.10
11647;DHT22;5880;52.342;9.662;2023-07-20T09:11:47;22.70;56.40
11647;DHT22;5880;52.342;9.662;2023-07-20T09:14:14;22.70;56.10
11647;DHT22;5880;52.342;9.662;2023-07-20T09:16:50;22.70;56.30
11647;DHT22;5880;52.342;9.662;2023-07-20T09:19:18;22.80;56.80
11647;DHT22;5880;52.342;9.662;2023-07-20T09:21:48;22.80;57.30
11647;DHT22;5880;52.342;9.662;2023-07-20T09:24:17;22.90;55.60
11647;DHT22;5880;52.342;9.662;2023-07-20T09:26:44;22.90;55.80
11647;DHT22;5880;52.342;9.662;2023-07-20T09:29:13;22.90;55.70
11647;DHT22;5880;52.342;9.662;2023-07-20T09:31:41;22.80;55.60
11647;DHT22;5880;52.342;9.662;2023-07-20T09:34:07;23.00;55.20
11647;DHT22;5880;52.342;9.662;2023-07-20T09:36:34;23.00;55.20
11647;DHT22;5880;52.342;9.662;2023-07-20T09:39:02;23.00;55.50
11647;DHT22;5880;52.342;9.662;2023-07-20T09:41:29;23.00;55.10
11647;DHT22;5880;52.342;9.662;2023-07-20T09:44:04;23.00;54.40
11647;DHT22;5880;52.342;9.662;2023-07-20T09:46:42;23.00;55.00
11647;DHT22;5880;52.342;9.662;2023-07-20T09:49:11;23.00;53.50
11647;DHT22;5880;52.342;9.662;2023-07-20T09:51:37;23.10;54.80
11647;DHT22;5880;52.342;9.662;2023-07-20T09:54:04;23.10;54.00
11647;DHT22;5880;52.342;9.662;2023-07-20T09:56:31;23.10;53.10
11647;DHT22;5880;52.342;9.662;2023-07-20T09:58:58;23.20;52.60
11647;DHT22;5880;52.342;9.662;2023-07-20T10:01:24;23.10;53.20
11647;DHT22;5880;52.342;9.662;2023-07-20T10:03:54;23.10;52.90
11647;DHT22;5880;52.342;9.662;2023-07-20T10:06:24;23.10;51.70
11647;DHT22;5880;52.342;9.662;2023-07-20T10:08:56;23.20;51.80
11647;DHT22;5880;52.342;9.662;2023-07-20T10:11:30;23.10;51.30
11647;DHT22;5880;52.342;9.662;2023-07-20T10:14:03;23.10;52.20
11647;DHT22;5880;52.342;9.662;2023-07-20T10:16:35;23.10;51.20
11647;DHT22;5880;52.342;9.662;2023-07-20T10:19:09;23.20;51.10
11647;DHT22;5880;52.342;9.662;2023-07-20T10:21:42;23.20;51.60
11647;DHT22;5880;52.342;9.662;2023-07-20T10:24:14;23.20;50.70
11647;DHT22;5880;52.342;9.662;2023-07-20T10:26:41;23.30;50.90
11647;DHT22;5880;52.342;9.662;2023-07-20T10:29:08;23.30;51.90
11647;DHT22;5880;52.342;9.662;2023-07-20T10:31:35;23.30;51.50
11647;DHT22;5880;52.342;9.662;2023-07-20T10:34:03;23.40;51.40
11647;DHT22;5880;52.342;9.662;2023-07-20T10:36:30;23.40;51.60
11647;DHT22;5880;52.342;9.662;2023-07-20T10:38:56;23.50;51.90
11647;DHT22;5880;52.342;9.662;2023-07-20T10:41:27;23.50;51.00
11647;DHT22;5880;52.342;9.662;2023-07-20T10:44:05;23.60;51.30
11647;DHT22;5880;52.342;9.662;2023-07-20T10:46:43;23.60;49.10
11647;DHT22;5880;52.342;9.662;2023-07-20T10:49:13;23.60;49.50
11647;DHT22;5880;52.342;9.662;2023-07-20T10:51:43;23.60;51.70
11647;DHT22;5880;52.342;9.662;2023-07-20T10:56:52;23.60;48.70
11647;DHT22;5880;52.342;9.662;2023-07-20T10:59:36;23.60;49.00
11647;DHT22;5880;52.342;9.662;2023-07-20T11:02:09;23.60;49.10
11647;DHT22;5880;52.342;9.662;2023-07-20T11:04:39;23.50;49.50
11647;DHT22;5880;52.342;9.662;2023-07-20T11:07:06;23.40;50.00
11647;DHT22;5880;52.342;9.662;2023-07-20T11:09:36;23.40;49.30
11647;DHT22;5880;52.342;9.662;2023-07-20T11:12:10;23.40;49.40
11647;DHT22;5880;52.342;9.662;2023-07-20T11:14:43;23.40;48.30
11647;DHT22;5880;52.342;9.662;2023-07-20T11:17:19;23.30;49.80
11647;DHT22;5880;52.342;9.662;2023-07-20T11:19:55;23.30;49.30
11647;DHT22;5880;52.342;9.662;2023-07-20T11:22:22;23.20;48.90
11647;DHT22;5880;52.342;9.662;2023-07-20T11:24:48;23.20;50.30
11647;DHT22;5880;52.342;9.662;2023-07-20T11:27:15;23.30;51.00
11647;DHT22;5880;52.342;9.662;2023-07-20T11:29:41;23.40;50.20
11647;DHT22;5880;52.342;9.662;2023-07-20T11:32:07;23.40;49.80
11647;DHT22;5880;52.342;9.662;2023-07-20T11:34:34;23.40;50.60
11647;DHT22;5880;52.342;9.662;2023-07-20T11:37:00;23.40;49.70
11647;DHT22;5880;52.342;9.662;2023-07-20T11:39:29;23.50;49.90
11647;DHT22;5880;52.342;9.662;2023-07-20T11:41:56;23.40;49.30
11647;DHT22;5880;52.342;9.662;2023-07-20T11:44:26;23.40;49.20
11647;DHT22;5880;52.342;9.662;2023-07-20T11:47:12;23.40;47.80
11647;DHT22;5880;52.342;9.662;2023-07-20T11:49:43;23.30;49.00
11647;DHT22;5880;52.342;9.662;2023-07-20T11:52:16;23.30;49.70
11647;DHT22;5880;52.342;9.662;2023-07-20T11:54:43;23.50;49.10
11647;DHT22;5880;52.342;9.662;2023-07-20T11:57:21;23.40;49.20
11647;DHT22;5880;52.342;9.662;2023-07-20T12:02:23;23.70;49.50
11647;DHT22;5880;52.342;9.662;2023-07-20T12:04:51;23.70;49.70
11647;DHT22;5880;52.342;9.662;2023-07-20T12:07:18;23.80;48.90
11647;DHT22;5880;52.342;9.662;2023-07-20T12:09:45;23.90;48.20
11647;DHT22;5880;52.342;9.662;2023-07-20T12:12:32;23.90;48.80
11647;DHT22;5880;52.342;9.662;2023-07-20T12:17:50;24.10;47.00
11647;DHT22;5880;52.342;9.662;2023-07-20T12:20:31;24.10;47.80
11647;DHT22;5880;52.342;9.662;2023-07-20T12:23:04;24.20;48.10
11647;DHT22;5880;52.342;9.662;2023-07-20T12:25:41;24.20;47.60
11647;DHT22;5880;52.342;9.662;2023-07-20T12:28:15;24.20;47.10
11647;DHT22;5880;52.342;9.662;2023-07-20T12:30:43;24.30;47.70
11647;DHT22;5880;52.342;9.662;2023-07-20T12:33:10;24.40;48.40
11647;DHT22;5880;52.342;9.662;2023-07-20T12:35:37;24.50;48.90
11647;DHT22;5880;52.342;9.662;2023-07-20T12:38:03;24.60;48.20
11647;DHT22;5880;52.342;9.662;2023-07-20T12:40:29;24.70;48.00
11647;DHT22;5880;52.342;9.662;2023-07-20T12:42:55;24.80;47.10
11647;DHT22;5880;52.342;9.662;2023-07-20T12:45:21;24.80;46.40
11647;DHT22;5880;52.342;9.662;2023-07-20T12:47:47;24.90;46.20
11647;DHT22;5880;52.342;9.662;2023-07-20T12:50:13;24.90;46.00
11647;DHT22;5880;52.342;9.662;2023-07-20T12:52:40;24.90;46.30
11647;DHT22;5880;52.342;9.662;2023-07-20T12:55:07;25.10;45.20
11647;DHT22;5880;52.342;9.662;2023-07-20T12:57:34;25.00;45.30
11647;DHT22;5880;52.342;9.662;2023-07-20T13:00:04;25.10;44.80
11647;DHT22;5880;52.342;9.662;2023-07-20T13:02:33;25.00;43.80
11647;DHT22;5880;52.342;9.662;2023-07-20T13:04:59;24.90;43.80
11647;DHT22;5880;52.342;9.662;2023-07-20T13:07:35;24.80;44.40
11647;DHT22;5880;52.342;9.662;2023-07-20T13:10:03;24.70;43.10
11647;DHT22;5880;52.342;9.662;2023-07-20T13:12:31;24.70;44.40
11647;DHT22;5880;52.342;9.662;2023-07-20T13:14:58;24.70;44.90
11647;DHT22;5880;52.342;9.662;2023-07-20T13:17:26;24.70;45.30
11647;DHT22;5880;52.342;9.662;2023-07-20T13:19:52;24.60;45.20
11647;DHT22;5880;52.342;9.662;2023-07-20T13:22:19;24.60;44.80
11647;DHT22;5880;52.342;9.662;2023-07-20T13:24:46;24.60;44.60
11647;DHT22;5880;52.342;9.662;2023-07-20T13:27:15;24.60;44.70
11647;DHT22;5880;52.342;9.662;2023-07-20T13:29:41;24.60;44.40
11647;DHT22;5880;52.342;9.662;2023-07-20T13:32:07;24.60;43.20
11647;DHT22;5880;52.342;9.662;2023-07-20T13:34:33;24.60;42.80
11647;DHT22;5880;52.342;9.662;2023-07-20T13:37:00;24.50;43.10
11647;DHT22;5880;52.342;9.662;2023-07-20T13:39:28;24.60;43.00
11647;DHT22;5880;52.342;9.662;2023-07-20T13:41:54;24.50;42.60
11647;DHT22;5880;52.342;9.662;2023-07-20T13:44:20;24.30;42.30
11647;DHT22;5880;52.342;9.662;2023-07-20T13:46:47;24.20;42.00
11647;DHT22;5880;52.342;9.662;2023-07-20T13:49:13;24.10;42.50
11647;DHT22;5880;52.342;9.662;2023-07-20T13:51:39;24.00;42.40
11647;DHT22;5880;52.342;9.662;2023-07-20T13:54:06;23.90;42.40
11647;DHT22;5880;52.342;9.662;2023-07-20T13:56:32;23.80;42.70
11647;DHT22;5880;52.342;9.662;2023-07-20T13:58:57;23.80;43.00
11647;DHT22;5880;52.342;9.662;2023-07-20T14:01:23;23.80;44.00
11647;DHT22;5880;52.342;9.662;2023-07-20T14:03:50;23.80;44.00
11647;DHT22;5880;52.342;9.662;2023-07-20T14:06:17;23.90;44.40
11647;DHT22;5880;52.342;9.662;2023-07-20T14:08:43;24.00;44.50
11647;DHT22;5880;52.342;9.662;2023-07-20T14:11:12;24.10;44.50
11647;DHT22;5880;52.342;9.662;2023-07-20T14:13:38;24.10;44.40
11647;DHT22;5880;52.342;9.662;2023-07-20T14:16:05;24.20;44.70
11647;DHT22;5880;52.342;9.662;2023-07-20T14:18:31;24.30;44.40
11647;DHT22;5880;52.342;9.662;2023-07-20T14:20:57;24.30;44.70
11647;DHT22;5880;52.342;9.662;2023-07-20T14:23:22;24.40;44.70
11647;DHT22;5880;52.342;9.662;2023-07-20T14:25:48;24.50;45.10
11647;DHT22;5880;52.342;9.662;2023-07-20T14:28:14;24.50;44.30
11647;DHT22;5880;52.342;9.662;2023-07-20T14:30:41;24.60;44.80
11647;DHT22;5880;52.342;9.662;2023-07-20T14:33:07;24.70;45.10
11647;DHT22;5880;52.342;9.662;2023-07-20T14:35:33;24.90;44.50
11647;DHT22;5880;52.342;9.662;2023-07-20T14:37:59;24.90;43.90
11647;DHT22;5880;52.342;9.662;2023-07-20T14:40:25;25.10;44.80
11647;DHT22;5880;52.342;9.662;2023-07-20T14:42:51;25.10;44.40
11647;DHT22;5880;52.342;9.662;2023-07-20T14:45:18;25.30;43.20
11647;DHT22;5880;52.342;9.662;2023-07-20T14:47:44;25.20;42.50
11647;DHT22;5880;52.342;9.662;2023-07-20T14:50:11;25.20;42.90
11647;DHT22;5880;52.342;9.662;2023-07-20T14:52:37;25.30;41.90
11647;DHT22;5880;52.342;9.662;2023-07-20T14:55:03;25.10;41.60
11647;DHT22;5880;52.342;9.662;2023-07-20T14:57:29;25.00;42.00
11647;DHT22;5880;52.342;9.662;2023-07-20T14:59:55;25.00;41.90
11647;DHT22;5880;52.342;9.662;2023-07-20T15:02:21;25.00;42.20
11647;DHT22;5880;52.342;9.662;2023-07-20T15:04:47;25.00;42.80
11647;DHT22;5880;52.342;9.662;2023-07-20T15:07:18;25.00;42.30
11647;DHT22;5880;52.342;9.662;2023-07-20T15:09:44;25.00;41.90
11647;DHT22;5880;52.342;9.662;2023-07-20T15:12:10;25.10;41.80
11647;DHT22;5880;52.342;9.662;2023-07-20T15:14:40;25.00;41.50
11647;DHT22;5880;52.342;9.662;2023-07-20T15:17:08;25.00;40.70
11647;DHT22;5880;52.342;9.662;2023-07-20T15:19:34;25.00;40.90
11647;DHT22;5880;52.342;9.662;2023-07-20T15:22:02;24.90;41.60
11647;DHT22;5880;52.342;9.662;2023-07-20T15:24:29;24.90;40.60
11647;DHT22;5880;52.342;9.662;2023-07-20T15:26:55;24.80;40.90
11647;DHT22;5880;52.342;9.662;2023-07-20T15:29:22;24.80;41.30
11647;DHT22;5880;52.342;9.662;2023-07-20T15:31:49;24.80;40.90
11647;DHT22;5880;52.342;9.662;2023-07-20T15:34:14;24.80;41.30
11647;DHT22;5880;52.342;9.662;2023-07-20T15:36:41;24.70;42.10
11647;DHT22;5880;52.342;9.662;2023-07-20T15:39:08;24.60;41.40
11647;DHT22;5880;52.342;9.662;2023-07-20T15:41:33;24.60;40.70
11647;DHT22;5880;52.342;9.662;2023-07-20T15:44:00;24.60;41.30
11647;DHT22;5880;52.342;9.662;2023-07-20T15:46:44;24.50;40.80
11647;DHT22;5880;52.342;9.662;2023-07-20T15:49:13;24.50;39.60
11647;DHT22;5880;52.342;9.662;2023-07-20T15:51:39;24.40;40.10
11647;DHT22;5880;52.342;9.662;2023-07-20T15:54:10;24.30;39.80
11647;DHT22;5880;52.342;9.662;2023-07-20T15:56:37;24.20;39.90
11647;DHT22;5880;52.342;9.662;2023-07-20T15:59:05;24.10;41.30
11647;DHT22;5880;52.342;9.662;2023-07-20T16:01:31;24.00;41.70
11647;DHT22;5880;52.342;9.662;2023-07-20T16:03:58;23.80;41.70